Time;durP1;ratioP1;P1;durP2;ratioP2;P2;SDS_P1;SDS_P2;PMS_P1;PMS_P2;Temp;Humidity;BMP_temperature;BMP_pressure;BME280_temperature;BME280_humidity;BME280_pressure;Samples;Min_cycle;Max_cycle;Signal;HPM_P1;HPM_P2
2023/03/26 00:00:49;;;;;;;11.63;2.78;;;7.80;99.90;;;;;;4948538;28;20071;-78
2023/03/26 00:03:17;;;;;;;11.65;2.30;;;7.80;99.90;;;;;;4955880;28;20037;-78
2023/03/26 00:05:45;;;;;;;11.40;2.17;;;7.80;99.90;;;;;;4972259;28;20048;-78
2023/03/26 00:08:11;;;;;;;12.65;1.80;;;7.80;99.90;;;;;;4974310;28;20049;-78
2023/03/26 00:10:39;;;;;;;11.77;2.67;;;7.80;99.90;;;;;;4963538;28;20550;-78
2023/03/26 00:13:06;;;;;;;12.20;1.90;;;7.90;99.90;;;;;;4973932;28;20053;-78
2023/03/26 00:15:35;;;;;;;10.30;2.03;;;7.90;99.90;;;;;;4963345;28;20053;-78
2023/03/26 00:18:02;;;;;;;9.93;1.65;;;7.90;99.90;;;;;;4964854;28;20297;-78
2023/03/26 00:20:31;;;;;;;14.90;2.63;;;8.00;99.90;;;;;;4972392;28;21837;-78
2023/03/26 00:23:00;;;;;;;12.25;2.20;;;8.00;99.90;;;;;;4970990;28;20493;-78
2023/03/26 00:25:27;;;;;;;12.88;2.83;;;8.00;99.90;;;;;;4940383;28;20936;-77
2023/03/26 00:27:53;;;;;;;11.85;2.63;;;8.00;99.90;;;;;;4955697;28;20868;-78
2023/03/26 00:30:19;;;;;;;15.75;2.58;;;8.10;99.90;;;;;;4981239;28;20049;-78
2023/03/26 00:32:46;;;;;;;12.93;2.38;;;8.10;99.90;;;;;;4953573;28;20046;-78
2023/03/26 00:35:12;;;;;;;14.43;2.40;;;8.10;99.90;;;;;;4956606;28;20042;-78
2023/03/26 00:37:41;;;;;;;12.43;2.70;;;8.10;99.90;;;;;;4978486;28;20411;-78
2023/03/26 00:40:09;;;;;;;12.40;2.53;;;8.20;99.90;;;;;;4957911;28;20796;-78
2023/03/26 00:42:37;;;;;;;18.98;3.22;;;8.10;99.90;;;;;;4972377;28;20038;-79
2023/03/26 00:45:06;;;;;;;22.95;4.93;;;8.20;99.90;;;;;;4971196;28;20042;-78
2023/03/26 00:47:33;;;;;;;22.40;3.15;;;8.10;99.90;;;;;;4988391;28;20461;-78
2023/03/26 00:50:00;;;;;;;21.73;3.63;;;8.20;99.90;;;;;;4966388;28;20053;-78
2023/03/26 00:52:27;;;;;;;17.50;3.47;;;8.20;99.90;;;;;;4968493;28;20081;-79
2023/03/26 00:54:54;;;;;;;18.58;2.95;;;8.20;99.90;;;;;;4971639;28;20046;-78
2023/03/26 00:57:21;;;;;;;24.52;4.63;;;8.20;99.90;;;;;;4978866;28;20424;-78
2023/03/26 00:59:48;;;;;;;25.77;4.63;;;8.20;99.90;;;;;;4991090;28;20516;-78
2023/03/26 01:02:17;;;;;;;17.25;3.95;;;8.20;99.90;;;;;;4956645;28;20084;-78
2023/03/26 01:04:54;;;;;;;20.40;4.30;;;8.20;99.90;;;;;;4969957;28;20041;-77
2023/03/26 01:07:27;;;;;;;18.15;3.67;;;8.20;99.90;;;;;;4973382;28;20033;-78
2023/03/26 01:09:59;;;;;;;22.05;3.50;;;8.20;99.90;;;;;;4965991;28;20046;-78
2023/03/26 01:12:32;;;;;;;19.45;4.70;;;8.20;99.90;;;;;;4967580;28;20048;-78
2023/03/26 01:15:01;;;;;;;21.25;4.53;;;8.20;99.90;;;;;;4972914;28;20046;-78
2023/03/26 01:17:36;;;;;;;17.42;4.35;;;8.20;99.90;;;;;;4962722;28;20677;-78
2023/03/26 01:20:13;;;;;;;18.42;3.55;;;8.20;99.90;;;;;;4957616;28;20042;-78
2023/03/26 01:22:51;;;;;;;25.23;4.65;;;8.20;99.90;;;;;;4972696;28;20047;-78
2023/03/26 01:25:19;;;;;;;27.42;4.68;;;8.20;99.90;;;;;;4985517;28;20516;-78
2023/03/26 01:27:54;;;;;;;21.05;3.70;;;8.20;99.90;;;;;;4970617;28;20045;-78
2023/03/26 01:30:40;;;;;;;27.45;4.75;;;8.30;99.90;;;;;;4948716;28;20487;-78
2023/03/26 01:33:32;;;;;;;22.27;4.57;;;8.30;99.90;;;;;;4971269;28;20497;-78
2023/03/26 01:36:24;;;;;;;33.60;5.80;;;8.30;99.90;;;;;;4973418;28;20038;-78
2023/03/26 01:39:06;;;;;;;30.17;5.45;;;8.30;99.90;;;;;;4978428;28;20273;-78
2023/03/26 01:41:47;;;;;;;25.73;4.85;;;8.40;99.90;;;;;;4975860;28;20030;-78
2023/03/26 01:44:27;;;;;;;31.65;5.65;;;8.40;99.90;;;;;;4972733;28;20041;-77
2023/03/26 01:46:54;;;;;;;23.67;5.90;;;8.40;99.90;;;;;;4971129;28;21071;-77
2023/03/26 01:49:20;;;;;;;26.55;5.43;;;8.40;99.90;;;;;;4952746;28;20050;-78
2023/03/26 01:51:47;;;;;;;29.67;5.65;;;8.40;99.90;;;;;;4967046;28;20033;-78
2023/03/26 01:54:20;;;;;;;25.00;5.75;;;8.40;99.90;;;;;;4970012;28;20045;-78
2023/03/26 01:56:47;;;;;;;29.30;6.75;;;8.40;99.90;;;;;;4971266;28;20274;-78
2023/03/26 01:59:16;;;;;;;34.33;7.40;;;8.40;99.90;;;;;;4957258;28;20041;-78
2023/03/26 02:02:12;;;;;;;41.13;10.57;;;8.50;99.90;;;;;;4974560;28;20057;-78
2023/03/26 02:04:52;;;;;;;33.22;9.20;;;8.50;99.90;;;;;;4976168;28;20037;-79
2023/03/26 02:07:37;;;;;;;32.60;8.32;;;8.50;99.90;;;;;;4969777;28;20041;-78
2023/03/26 02:10:24;;;;;;;27.13;8.77;;;8.50;99.90;;;;;;4963988;28;20385;-77
2023/03/26 02:12:51;;;;;;;48.28;11.38;;;8.50;99.90;;;;;;4969357;28;20484;-78
2023/03/26 02:15:18;;;;;;;36.95;10.35;;;8.50;99.90;;;;;;4970915;28;20044;-78
2023/03/26 02:17:45;;;;;;;39.60;10.60;;;8.50;99.90;;;;;;4971393;28;20034;-78
2023/03/26 02:20:14;;;;;;;32.30;9.45;;;8.50;99.90;;;;;;4976662;28;22633;-78
2023/03/26 02:22:44;;;;;;;38.13;10.05;;;8.50;99.90;;;;;;4975320;28;20053;-78
2023/03/26 02:25:15;;;;;;;46.67;10.23;;;8.50;99.90;;;;;;4974399;28;20044;-78
2023/03/26 02:27:42;;;;;;;33.53;7.95;;;8.50;99.90;;;;;;4968299;28;20042;-78
2023/03/26 02:30:15;;;;;;;25.92;7.78;;;8.40;99.90;;;;;;4963422;28;20038;-78
2023/03/26 02:32:42;;;;;;;32.08;6.72;;;8.40;99.90;;;;;;4968085;28;20517;-78
2023/03/26 02:35:11;;;;;;;28.10;6.88;;;8.40;99.90;;;;;;4953026;28;20048;-78
2023/03/26 02:37:38;;;;;;;33.17;7.30;;;8.40;99.90;;;;;;4969856;28;20038;-78
2023/03/26 02:40:14;;;;;;;37.72;7.07;;;8.40;99.90;;;;;;4970195;28;20030;-78
2023/03/26 02:42:44;;;;;;;27.70;6.53;;;8.40;99.90;;;;;;4959209;28;20413;-78
2023/03/26 02:45:10;;;;;;;33.20;6.18;;;8.40;99.90;;;;;;4977103;28;20029;-78
2023/03/26 02:47:59;;;;;;;33.40;7.60;;;8.40;99.90;;;;;;4969256;28;20618;-78
2023/03/26 02:51:02;;;;;;;29.40;6.68;;;8.50;99.90;;;;;;4951164;28;20046;-79
2023/03/26 02:53:52;;;;;;;18.52;5.32;;;8.40;99.90;;;;;;4954790;28;20508;-78
2023/03/26 02:56:41;;;;;;;28.83;5.25;;;8.40;99.90;;;;;;4963247;28;20424;-78
2023/03/26 02:59:24;;;;;;;32.25;6.95;;;8.50;99.90;;;;;;4964577;28;20046;-79
2023/03/26 03:02:12;;;;;;;34.75;6.55;;;8.50;99.90;;;;;;4974468;28;20044;-78
2023/03/26 03:04:39;;;;;;;32.20;7.05;;;8.50;99.90;;;;;;4961393;28;20030;-78
2023/03/26 03:07:06;;;;;;;38.65;8.48;;;8.50;99.90;;;;;;4976439;28;20408;-78
2023/03/26 03:09:33;;;;;;;25.70;5.80;;;8.50;99.90;;;;;;4966279;28;20038;-78
2023/03/26 03:12:18;;;;;;;22.95;5.63;;;8.50;99.90;;;;;;4979288;28;22945;-78
2023/03/26 03:14:45;;;;;;;31.55;7.82;;;8.60;99.90;;;;;;4983123;28;20046;-78
2023/03/26 03:17:11;;;;;;;28.50;5.88;;;8.50;99.90;;;;;;4967289;28;20041;-79
2023/03/26 03:19:37;;;;;;;27.88;7.22;;;8.60;99.90;;;;;;4948183;28;20056;-78
2023/03/26 03:22:04;;;;;;;34.22;6.93;;;8.60;99.90;;;;;;4969671;28;22709;-78
2023/03/26 03:24:37;;;;;;;46.97;9.43;;;8.50;99.90;;;;;;4980320;28;20037;-78
2023/03/26 03:27:04;;;;;;;57.70;11.23;;;8.60;99.90;;;;;;4977203;28;20809;-78
2023/03/26 03:29:36;;;;;;;38.42;10.07;;;8.60;99.90;;;;;;4966141;28;21241;-78
2023/03/26 03:32:26;;;;;;;31.40;7.80;;;8.60;99.90;;;;;;4969004;28;20045;-78
2023/03/26 03:34:56;;;;;;;47.90;10.63;;;8.60;99.90;;;;;;4985458;28;21591;-78
2023/03/26 03:37:23;;;;;;;38.97;9.40;;;8.60;99.90;;;;;;4969176;28;20526;-79
2023/03/26 03:39:53;;;;;;;34.50;9.10;;;8.60;99.90;;;;;;4962258;28;20045;-78
2023/03/26 03:42:22;;;;;;;30.75;8.57;;;8.60;99.90;;;;;;4984953;28;20050;-78
2023/03/26 03:44:51;;;;;;;30.30;9.07;;;8.60;99.90;;;;;;4978642;28;20033;-78
2023/03/26 03:47:38;;;;;;;43.10;10.35;;;8.60;99.90;;;;;;4976295;28;20054;-78
2023/03/26 03:50:05;;;;;;;32.58;9.05;;;8.60;99.90;;;;;;4948120;28;20045;-78
2023/03/26 03:52:32;;;;;;;35.67;8.45;;;8.60;99.90;;;;;;4967231;28;20069;-79
2023/03/26 03:55:01;;;;;;;35.65;10.00;;;8.60;99.90;;;;;;4971536;28;20052;-78
2023/03/26 03:57:45;;;;;;;27.63;7.95;;;8.60;99.90;;;;;;4975597;28;20038;-78
2023/03/26 04:00:16;;;;;;;28.93;7.80;;;8.60;99.90;;;;;;4983958;28;20042;-78
2023/03/26 04:02:45;;;;;;;30.85;8.40;;;8.60;99.90;;;;;;4979165;28;20284;-79
2023/03/26 04:05:12;;;;;;;34.17;9.60;;;8.70;99.90;;;;;;4981993;28;20041;-78
2023/03/26 04:07:44;;;;;;;28.85;7.93;;;8.70;99.90;;;;;;4991062;28;20049;-78
2023/03/26 04:10:37;;;;;;;34.72;9.13;;;8.70;99.90;;;;;;4963616;28;20586;-78
2023/03/26 04:13:24;;;;;;;29.67;7.13;;;8.70;99.90;;;;;;4974879;28;20497;-78
2023/03/26 04:15:50;;;;;;;30.80;8.05;;;8.70;99.90;;;;;;4975156;28;20042;-78
2023/03/26 04:18:19;;;;;;;29.00;7.97;;;8.70;99.90;;;;;;4940647;28;20052;-78
2023/03/26 04:20:46;;;;;;;28.90;7.60;;;8.70;99.90;;;;;;4963378;28;20053;-78
2023/03/26 04:23:17;;;;;;;30.38;8.63;;;8.70;99.90;;;;;;4979060;28;20042;-78
2023/03/26 04:25:54;;;;;;;28.92;7.82;;;8.70;99.90;;;;;;4979815;28;20890;-78
2023/03/26 04:28:35;;;;;;;29.42;6.93;;;8.70;99.90;;;;;;4981293;28;20038;-79
2023/03/26 04:31:22;;;;;;;25.27;6.35;;;8.70;99.90;;;;;;4947605;28;22228;-78
2023/03/26 04:33:54;;;;;;;22.25;6.80;;;8.70;99.90;;;;;;4969626;28;20050;-78
2023/03/26 04:36:27;;;;;;;27.35;6.10;;;8.70;99.90;;;;;;4986240;28;20049;-77
2023/03/26 04:38:57;;;;;;;22.77;5.93;;;8.70;99.90;;;;;;4986248;28;20049;-78
2023/03/26 04:41:38;;;;;;;23.10;5.15;;;8.70;99.90;;;;;;4967434;28;20556;-79
2023/03/26 04:44:10;;;;;;;39.45;6.82;;;8.70;99.90;;;;;;4964809;28;20053;-78
2023/03/26 04:46:59;;;;;;;45.67;7.78;;;8.70;99.90;;;;;;4983674;28;20042;-78
2023/03/26 04:49:40;;;;;;;24.05;5.20;;;8.70;99.90;;;;;;4967861;28;20060;-79
2023/03/26 04:52:08;;;;;;;22.67;5.22;;;8.70;99.90;;;;;;4967144;28;20049;-78
2023/03/26 04:54:58;;;;;;;22.85;4.93;;;8.70;99.90;;;;;;4961746;28;20608;-78
2023/03/26 04:57:34;;;;;;;24.75;4.90;;;8.70;99.90;;;;;;4971279;28;20044;-79
2023/03/26 05:00:14;;;;;;;28.20;4.32;;;8.70;99.90;;;;;;4965822;28;20050;-78
2023/03/26 05:02:42;;;;;;;31.75;5.63;;;8.70;99.90;;;;;;4957989;28;20511;-78
2023/03/26 05:05:09;;;;;;;34.15;4.68;;;8.70;99.90;;;;;;4965204;28;20053;-79
2023/03/26 05:07:36;;;;;;;21.52;3.67;;;8.60;99.90;;;;;;4962249;28;20797;-78
2023/03/26 05:10:03;;;;;;;26.25;4.00;;;8.60;99.90;;;;;;4949393;28;21664;-78
2023/03/26 05:12:41;;;;;;;18.23;3.58;;;8.60;99.90;;;;;;4967176;28;20045;-78
2023/03/26 05:15:12;;;;;;;20.50;3.55;;;8.60;99.90;;;;;;4987235;28;20057;-79
2023/03/26 05:17:57;;;;;;;17.73;3.17;;;8.60;99.90;;;;;;4986478;28;21142;-79
2023/03/26 05:20:30;;;;;;;24.73;3.75;;;8.60;99.90;;;;;;4980113;28;20902;-78
2023/03/26 05:22:57;;;;;;;20.70;3.08;;;8.60;99.90;;;;;;4973293;28;20041;-79
2023/03/26 05:25:29;;;;;;;19.58;3.83;;;8.60;99.90;;;;;;4980821;28;20057;-79
2023/03/26 05:27:56;;;;;;;15.32;4.22;;;8.60;99.90;;;;;;4961752;28;20045;-79
2023/03/26 05:30:27;;;;;;;18.73;3.40;;;8.60;99.90;;;;;;4949562;28;20378;-79
2023/03/26 05:32:58;;;;;;;18.17;2.97;;;8.60;99.90;;;;;;4970445;28;20045;-78
2023/03/26 05:35:29;;;;;;;18.80;3.53;;;8.60;99.90;;;;;;4985625;28;20045;-79
2023/03/26 05:37:56;;;;;;;20.83;3.50;;;8.60;99.90;;;;;;4985786;28;20493;-78
2023/03/26 05:40:24;;;;;;;23.75;3.92;;;8.60;99.90;;;;;;4965515;28;20046;-78
2023/03/26 05:42:59;;;;;;;24.23;3.92;;;8.60;99.90;;;;;;4975918;28;20041;-78
2023/03/26 05:45:41;;;;;;;28.40;4.00;;;8.60;99.90;;;;;;4980071;28;20034;-78
2023/03/26 05:48:29;;;;;;;24.00;5.32;;;8.60;99.90;;;;;;4978587;28;20292;-78
2023/03/26 05:50:57;;;;;;;21.48;4.20;;;8.60;99.90;;;;;;4962457;28;20058;-78
2023/03/26 05:53:26;;;;;;;19.55;3.45;;;8.60;99.90;;;;;;4970263;28;20057;-78
2023/03/26 05:56:11;;;;;;;31.02;4.40;;;8.60;99.90;;;;;;4972663;28;20068;-79
2023/03/26 05:58:56;;;;;;;25.42;4.47;;;8.60;99.90;;;;;;4971647;28;20065;-78
2023/03/26 06:01:43;;;;;;;27.35;4.75;;;8.60;99.90;;;;;;4967833;28;20065;-78
2023/03/26 06:04:14;;;;;;;23.40;4.72;;;8.60;99.90;;;;;;4992358;28;20038;-79
2023/03/26 06:06:48;;;;;;;24.33;4.68;;;8.60;99.90;;;;;;4979905;28;20727;-79
2023/03/26 06:09:15;;;;;;;19.08;4.32;;;8.60;99.90;;;;;;4973730;28;20037;-78
2023/03/26 06:11:45;;;;;;;29.20;6.90;;;8.60;99.90;;;;;;4948750;28;20038;-78
2023/03/26 06:14:11;;;;;;;27.15;6.05;;;8.60;99.90;;;;;;4969710;28;20045;-79
2023/03/26 06:16:43;;;;;;;33.10;6.15;;;8.60;99.90;;;;;;4985288;28;20041;-78
2023/03/26 06:19:20;;;;;;;17.98;4.80;;;8.60;99.90;;;;;;4981398;28;20528;-78
2023/03/26 06:22:09;;;;;;;26.30;5.65;;;8.60;99.90;;;;;;4964452;28;20042;-78
2023/03/26 06:24:55;;;;;;;30.55;5.95;;;8.60;99.90;;;;;;4978999;28;20038;-78
2023/03/26 06:27:37;;;;;;;25.35;6.35;;;8.50;99.90;;;;;;4978132;28;20038;-78
2023/03/26 06:30:41;;;;;;;31.38;7.00;;;8.50;99.90;;;;;;4963937;28;20049;-79
2023/03/26 06:33:34;;;;;;;30.98;7.03;;;8.50;99.90;;;;;;4969952;28;21282;-78
2023/03/26 06:36:01;;;;;;;29.92;7.85;;;8.60;99.90;;;;;;4969728;28;20053;-78
2023/03/26 06:38:27;;;;;;;31.27;6.65;;;8.50;99.90;;;;;;4970532;28;20194;-79
2023/03/26 06:41:00;;;;;;;32.70;8.23;;;8.60;99.90;;;;;;4961282;28;20057;-78
2023/03/26 06:43:26;;;;;;;33.58;7.13;;;8.60;99.90;;;;;;4975880;28;20038;-78
2023/03/26 06:46:20;;;;;;;31.80;6.55;;;8.60;99.90;;;;;;4978154;28;20760;-79
2023/03/26 06:49:05;;;;;;;30.17;5.82;;;8.60;99.90;;;;;;4972548;28;20046;-78
2023/03/26 06:51:50;;;;;;;46.08;9.95;;;8.60;99.90;;;;;;4965894;28;20528;-79
2023/03/26 06:54:27;;;;;;;39.75;9.65;;;8.60;99.90;;;;;;4986304;28;20038;-79
2023/03/26 06:56:59;;;;;;;32.10;8.35;;;8.60;99.90;;;;;;4957257;28;20378;-78
2023/03/26 06:59:40;;;;;;;31.08;7.35;;;8.60;99.90;;;;;;4981056;28;20046;-78
2023/03/26 07:02:25;;;;;;;32.75;7.75;;;8.60;99.90;;;;;;4966872;28;20045;-78
2023/03/26 07:05:10;;;;;;;38.50;8.68;;;8.60;99.90;;;;;;4992041;28;20250;-79
2023/03/26 07:07:55;;;;;;;29.63;8.02;;;8.60;99.90;;;;;;4994498;28;20049;-78
2023/03/26 07:10:40;;;;;;;28.38;7.20;;;8.70;99.90;;;;;;4967425;28;20053;-78
2023/03/26 07:13:27;;;;;;;30.00;7.15;;;8.70;99.90;;;;;;4974143;28;20061;-78
2023/03/26 07:16:16;;;;;;;29.10;6.90;;;8.70;99.90;;;;;;4953155;28;20050;-78
2023/03/26 07:18:57;;;;;;;24.45;6.97;;;8.70;99.90;;;;;;4983875;28;20041;-79
2023/03/26 07:21:29;;;;;;;24.33;6.97;;;8.70;99.90;;;;;;4981424;28;20042;-79
2023/03/26 07:23:56;;;;;;;25.23;6.70;;;8.80;99.90;;;;;;4959666;28;20045;-78
2023/03/26 07:26:55;;;;;;;50.58;10.13;;;8.80;99.90;;;;;;4982965;28;20057;-77
2023/03/26 07:29:36;;;;;;;25.83;7.13;;;8.80;99.90;;;;;;4976523;28;20706;-77
2023/03/26 07:33:02;;;;;;;24.95;6.10;;;8.90;99.90;;;;;;4955239;28;20045;-78
2023/03/26 07:36:02;;;;;;;35.78;8.13;;;8.90;99.90;;;;;;4974703;28;20045;-78
2023/03/26 07:38:55;;;;;;;26.65;5.97;;;8.90;99.90;;;;;;4975411;28;20053;-78
2023/03/26 07:42:00;;;;;;;26.73;4.85;;;8.90;99.90;;;;;;4970307;28;20416;-77
2023/03/26 07:45:08;;;;;;;20.58;4.35;;;8.90;99.90;;;;;;4969675;28;20048;-78
2023/03/26 07:47:52;;;;;;;25.90;6.00;;;8.90;99.90;;;;;;4983890;28;20513;-77
2023/03/26 07:50:25;;;;;;;28.52;5.68;;;8.90;99.90;;;;;;4988708;28;20053;-78
2023/03/26 07:53:22;;;;;;;26.90;5.47;;;8.90;99.90;;;;;;4974238;28;20056;-78
2023/03/26 07:56:21;;;;;;;21.17;5.50;;;8.90;99.90;;;;;;4990565;28;20367;-78
2023/03/26 07:59:37;;;;;;;25.50;7.03;;;8.90;99.90;;;;;;4955297;28;22960;-78
2023/03/26 08:02:35;;;;;;;34.55;6.25;;;8.90;99.90;;;;;;4972438;28;20061;-78
2023/03/26 08:05:36;;;;;;;34.95;6.65;;;8.90;99.90;;;;;;4977107;28;20049;-77
2023/03/26 08:08:40;;;;;;;30.25;7.35;;;8.90;99.90;;;;;;4993065;28;20392;-77
2023/03/26 08:11:43;;;;;;;25.38;5.80;;;8.90;99.90;;;;;;4974583;28;20049;-78
2023/03/26 08:14:26;;;;;;;30.83;7.60;;;9.00;99.90;;;;;;4989947;28;20056;-77
2023/03/26 08:16:55;;;;;;;;;;;9.00;99.90;;;;;;4973707;28;21777;-77
2023/03/26 08:19:46;;;;;;;35.15;6.93;;;9.00;99.90;;;;;;4984514;28;19924;-77
2023/03/26 08:22:26;;;;;;;35.17;7.68;;;9.00;99.90;;;;;;4986032;28;20042;-77
2023/03/26 08:25:00;;;;;;;29.75;6.93;;;9.00;99.90;;;;;;4976288;28;20386;-77
2023/03/26 08:27:42;;;;;;;32.47;7.57;;;9.00;99.90;;;;;;4964606;28;20041;-77
2023/03/26 08:30:19;;;;;;;30.88;9.90;;;9.00;99.90;;;;;;4976785;28;20757;-77
2023/03/26 08:32:59;;;;;;;29.80;9.77;;;9.00;99.90;;;;;;4971880;28;20397;-77
2023/03/26 08:35:26;;;;;;;32.75;9.48;;;9.10;99.90;;;;;;4971950;28;20041;-77
2023/03/26 08:37:53;;;;;;;29.33;9.02;;;9.10;99.90;;;;;;4986034;28;20045;-77
2023/03/26 08:40:51;;;;;;;33.10;8.77;;;9.10;99.90;;;;;;4967109;28;20540;-77
2023/03/26 08:44:01;;;;;;;30.50;9.45;;;9.00;99.90;;;;;;4975663;28;20045;-76
2023/03/26 08:46:39;;;;;;;29.88;8.63;;;9.00;99.90;;;;;;4957868;28;20050;-77
2023/03/26 08:49:38;;;;;;;31.05;8.77;;;9.00;99.90;;;;;;4977120;28;20710;-78
2023/03/26 08:52:24;;;;;;;29.33;7.28;;;8.90;99.90;;;;;;4969916;28;20068;-77
2023/03/26 08:55:20;;;;;;;33.63;9.13;;;8.90;99.90;;;;;;4973899;28;20412;-77
2023/03/26 08:57:57;;;;;;;30.40;10.35;;;8.90;99.90;;;;;;4987391;28;20046;-77
2023/03/26 09:00:36;;;;;;;30.40;8.23;;;9.00;99.90;;;;;;4966932;28;20038;-77
2023/03/26 09:03:18;;;;;;;27.05;8.10;;;8.90;99.90;;;;;;4971837;28;20053;-77
2023/03/26 09:05:54;;;;;;;29.13;7.45;;;8.90;99.90;;;;;;4978812;28;20040;-77
2023/03/26 09:08:38;;;;;;;25.85;7.32;;;8.80;99.90;;;;;;4980686;28;20038;-78
2023/03/26 09:11:23;;;;;;;32.85;7.55;;;8.80;99.90;;;;;;4969550;28;20034;-79
2023/03/26 09:14:22;;;;;;;24.20;7.07;;;8.90;99.90;;;;;;4970791;28;20053;-78
2023/03/26 09:17:11;;;;;;;24.90;8.15;;;8.80;99.90;;;;;;4959108;28;20092;-77
2023/03/26 09:20:15;;;;;;;31.67;8.43;;;8.80;99.90;;;;;;4967859;28;21483;-78
2023/03/26 09:23:16;;;;;;;28.45;7.90;;;8.70;99.90;;;;;;4969465;28;20054;-78
2023/03/26 09:25:54;;;;;;;23.63;6.20;;;8.70;99.90;;;;;;4976402;28;20460;-77
2023/03/26 09:28:45;;;;;;;24.55;7.68;;;8.70;99.90;;;;;;4983423;28;20053;-78
2023/03/26 09:31:58;;;;;;;17.40;6.30;;;8.80;99.90;;;;;;4973361;28;20041;-80
2023/03/26 09:34:28;;;;;;;22.33;6.57;;;8.80;99.90;;;;;;4940233;28;20690;-79
2023/03/26 09:36:56;;;;;;;22.40;7.85;;;8.80;99.90;;;;;;4972209;28;20507;-78
2023/03/26 09:39:54;;;;;;;22.27;8.50;;;8.80;99.90;;;;;;4967549;28;20284;-78
2023/03/26 09:42:23;;;;;;;18.60;7.88;;;8.80;99.90;;;;;;4967867;28;20072;-78
2023/03/26 09:45:22;;;;;;;22.38;7.78;;;8.70;99.90;;;;;;4955908;28;21155;-79
2023/03/26 09:48:13;;;;;;;15.90;6.35;;;8.70;99.90;;;;;;4977552;28;20563;-79
2023/03/26 09:51:04;;;;;;;24.45;8.93;;;8.70;99.90;;;;;;4971191;28;20056;-79
2023/03/26 09:53:42;;;;;;;24.65;8.55;;;8.70;99.90;;;;;;4978121;28;20068;-79
2023/03/26 09:56:50;;;;;;;19.45;7.90;;;8.70;99.90;;;;;;4988659;28;20038;-79
2023/03/26 09:59:53;;;;;;;24.55;8.13;;;8.80;99.90;;;;;;4969009;28;20394;-79
2023/03/26 10:02:47;;;;;;;24.77;10.98;;;8.80;99.90;;;;;;4969084;28;20042;-79
2023/03/26 10:05:24;;;;;;;24.65;9.32;;;8.90;99.90;;;;;;4991210;28;20061;-79
2023/03/26 10:08:23;;;;;;;32.20;8.32;;;8.90;99.90;;;;;;4976116;28;20405;-80
2023/03/26 10:11:20;;;;;;;23.45;7.68;;;8.90;99.90;;;;;;4971527;28;20056;-80
2023/03/26 10:13:55;;;;;;;28.77;9.15;;;8.90;99.90;;;;;;4961195;28;20529;-79
2023/03/26 10:16:51;;;;;;;20.38;8.00;;;9.00;99.90;;;;;;4972661;28;20405;-79
2023/03/26 10:19:17;;;;;;;18.02;6.53;;;9.00;99.90;;;;;;4950858;28;20050;-79
2023/03/26 10:22:22;;;;;;;22.63;7.65;;;9.00;99.90;;;;;;4982517;28;20529;-79
2023/03/26 10:25:18;;;;;;;17.15;6.18;;;9.00;99.90;;;;;;4950607;28;20382;-79
2023/03/26 10:28:08;;;;;;;20.02;6.35;;;9.10;99.90;;;;;;4959048;28;20045;-79
2023/03/26 10:30:54;;;;;;;21.77;6.78;;;9.10;99.90;;;;;;4988787;28;20049;-79
2023/03/26 10:33:38;;;;;;;18.13;5.78;;;9.10;99.90;;;;;;4979753;28;20029;-79
2023/03/26 10:36:29;;;;;;;21.35;6.65;;;9.20;99.90;;;;;;4976212;28;20520;-79
2023/03/26 10:39:20;;;;;;;19.90;7.18;;;9.20;99.90;;;;;;4972134;28;20531;-79
2023/03/26 10:41:52;;;;;;;22.33;6.53;;;9.30;99.90;;;;;;4968091;28;20042;-79
2023/03/26 10:44:28;;;;;;;19.23;6.55;;;9.30;99.90;;;;;;4973089;28;20044;-79
2023/03/26 10:47:32;;;;;;;18.23;5.80;;;9.50;99.90;;;;;;4970921;28;20048;-79
2023/03/26 10:50:09;;;;;;;17.25;5.40;;;9.50;99.90;;;;;;4973367;28;20737;-79
2023/03/26 10:52:42;;;;;;;9.35;3.88;;;9.50;99.90;;;;;;4976317;28;22323;-79
2023/03/26 10:55:13;;;;;;;10.48;4.28;;;9.50;99.90;;;;;;4991287;28;20037;-79
2023/03/26 10:58:03;;;;;;;14.50;5.10;;;9.50;99.90;;;;;;4971197;28;20045;-79
2023/03/26 11:00:30;;;;;;;12.02;4.28;;;9.50;99.90;;;;;;4981334;28;20065;-78
2023/03/26 11:03:45;;;;;;;11.15;4.65;;;9.40;99.90;;;;;;4975442;28;20528;-79
2023/03/26 11:06:29;;;;;;;11.30;4.28;;;9.40;99.90;;;;;;4974158;28;20061;-80
2023/03/26 11:09:26;;;;;;;17.85;7.43;;;9.30;99.90;;;;;;4992870;28;20056;-80
2023/03/26 11:12:11;;;;;;;17.83;9.05;;;9.30;99.90;;;;;;4984539;28;20042;-82
2023/03/26 11:14:52;;;;;;;17.77;10.07;;;9.20;99.90;;;;;;4964236;28;20040;-80
2023/03/26 11:17:42;;;;;;;14.50;9.07;;;9.20;99.90;;;;;;4991859;28;20501;-81
2023/03/26 11:20:27;;;;;;;25.90;14.27;;;9.20;99.90;;;;;;4970503;28;20042;-81
2023/03/26 11:23:38;;;;;;;25.83;15.38;;;9.10;99.90;;;;;;4989124;28;20046;-81
2023/03/26 11:26:13;;;;;;;24.83;15.90;;;9.10;99.90;;;;;;4954961;28;20100;-81
2023/03/26 11:28:48;;;;;;;23.60;15.35;;;9.00;99.90;;;;;;4975603;28;20037;-81
2023/03/26 11:31:33;;;;;;;23.05;14.00;;;9.00;99.90;;;;;;4973425;28;20029;-81
2023/03/26 11:34:04;;;;;;;24.17;15.55;;;9.00;99.90;;;;;;4997886;28;20393;-81
2023/03/26 11:36:39;;;;;;;28.02;16.92;;;9.00;99.90;;;;;;4976822;28;20409;-80
2023/03/26 11:39:12;;;;;;;25.42;14.88;;;9.10;99.90;;;;;;4973039;28;20045;-80
2023/03/26 11:41:39;;;;;;;28.83;16.08;;;9.10;99.90;;;;;;4971144;28;20371;-80
2023/03/26 11:44:13;;;;;;;33.33;16.48;;;9.20;99.90;;;;;;4990636;28;20034;-80
2023/03/26 11:46:44;;;;;;;32.63;18.25;;;9.20;99.90;;;;;;4958007;28;20033;-80
2023/03/26 11:49:13;;;;;;;27.58;16.63;;;9.10;99.90;;;;;;4974644;28;20061;-80
2023/03/26 11:51:42;;;;;;;27.35;16.15;;;9.00;99.90;;;;;;4978837;28;20045;-80
2023/03/26 11:54:10;;;;;;;33.92;19.08;;;8.90;99.90;;;;;;4966563;28;20034;-80
2023/03/26 11:57:03;;;;;;;32.85;16.15;;;8.80;99.90;;;;;;4979145;28;20038;-80
2023/03/26 11:59:56;;;;;;;37.15;17.58;;;8.80;99.90;;;;;;4967783;28;20038;-80
2023/03/26 12:02:24;;;;;;;31.45;16.05;;;8.70;99.90;;;;;;4969243;28;20057;-80
2023/03/26 12:05:01;;;;;;;31.73;16.88;;;8.70;99.90;;;;;;4973820;28;20046;-80
2023/03/26 12:07:33;;;;;;;31.05;15.93;;;8.70;99.90;;;;;;4973286;28;20046;-80
2023/03/26 12:10:01;;;;;;;28.33;14.30;;;8.70;99.90;;;;;;4958999;28;20053;-79
2023/03/26 12:12:40;;;;;;;26.20;13.38;;;8.70;99.90;;;;;;4977537;28;20057;-79
2023/03/26 12:15:18;;;;;;;27.67;10.60;;;8.60;99.90;;;;;;4976888;28;20034;-80
2023/03/26 12:17:49;;;;;;;30.50;12.68;;;8.60;99.90;;;;;;4987828;28;20509;-79
2023/03/26 12:20:25;;;;;;;31.90;11.98;;;8.60;99.90;;;;;;4951210;28;20030;-80
2023/03/26 12:22:52;;;;;;;31.00;12.50;;;8.50;99.90;;;;;;4952779;28;20057;-79
2023/03/26 12:25:23;;;;;;;31.02;11.05;;;8.50;99.90;;;;;;4970458;28;20596;-78
2023/03/26 12:27:51;;;;;;;35.92;15.35;;;8.60;99.90;;;;;;4988716;28;20044;-81
2023/03/26 12:30:24;;;;;;;26.63;12.25;;;8.60;99.90;;;;;;4990173;28;20033;-80
2023/03/26 12:32:55;;;;;;;31.25;11.13;;;8.60;99.90;;;;;;4994189;28;20507;-81
2023/03/26 12:35:28;;;;;;;25.33;10.95;;;8.70;99.90;;;;;;4981611;28;20033;-80
2023/03/26 12:38:34;;;;;;;34.05;11.20;;;8.70;99.90;;;;;;4954911;28;20044;-80
2023/03/26 12:41:04;;;;;;;38.25;15.63;;;8.70;99.90;;;;;;4963521;28;20042;-80
2023/03/26 12:44:04;;;;;;;26.92;11.23;;;8.70;99.90;;;;;;4953713;28;20038;-82
2023/03/26 12:46:32;;;;;;;31.55;11.40;;;8.70;99.90;;;;;;4972283;28;20045;-79
2023/03/26 12:49:05;;;;;;;24.30;8.88;;;8.60;99.90;;;;;;4954035;28;22300;-79
2023/03/26 12:51:46;;;;;;;20.65;8.25;;;8.60;99.90;;;;;;4975199;28;20496;-79
2023/03/26 12:54:14;;;;;;;31.30;9.48;;;8.60;99.90;;;;;;4992395;28;20500;-78
2023/03/26 12:57:15;;;;;;;26.20;8.95;;;8.70;99.90;;;;;;4972765;28;20045;-80
2023/03/26 13:00:45;;;;;;;27.17;7.65;;;8.80;99.90;;;;;;4963521;28;20045;-79
2023/03/26 13:03:20;;;;;;;21.10;7.15;;;8.80;99.90;;;;;;4967683;28;20393;-79
2023/03/26 13:06:25;;;;;;;20.92;6.85;;;8.80;99.90;;;;;;4970612;28;20049;-79
2023/03/26 13:09:36;;;;;;;19.85;6.80;;;8.70;99.90;;;;;;4976558;28;20064;-79
2023/03/26 13:12:06;;;;;;;20.17;5.57;;;8.60;99.90;;;;;;4960320;28;20054;-79
2023/03/26 13:14:50;;;;;;;15.80;5.43;;;8.60;99.90;;;;;;4962443;28;20061;-79
2023/03/26 13:17:45;;;;;;;20.35;6.28;;;8.60;99.90;;;;;;4971385;28;20057;-79
2023/03/26 13:20:29;;;;;;;18.08;5.75;;;8.60;99.90;;;;;;4980469;28;21042;-80
2023/03/26 13:23:48;;;;;;;25.25;5.97;;;8.60;99.90;;;;;;4971008;28;20039;-79
2023/03/26 13:26:29;;;;;;;25.23;5.47;;;8.50;99.90;;;;;;4920587;28;20046;-79
2023/03/26 13:29:07;;;;;;;18.92;5.68;;;8.50;99.90;;;;;;4970021;28;20038;-79
2023/03/26 13:31:52;;;;;;;22.48;6.10;;;8.40;99.90;;;;;;4972797;28;20030;-80
2023/03/26 13:34:35;;;;;;;22.10;6.07;;;8.40;99.90;;;;;;4981068;28;20052;-80
2023/03/26 13:37:13;;;;;;;20.23;5.97;;;8.50;99.90;;;;;;4972569;28;20048;-79
2023/03/26 13:40:14;;;;;;;20.48;4.80;;;8.60;99.90;;;;;;4981893;28;20042;-80
2023/03/26 13:42:56;;;;;;;18.95;4.43;;;8.70;99.90;;;;;;4967602;28;20065;-79
2023/03/26 13:45:31;;;;;;;16.52;4.75;;;8.70;99.90;;;;;;4986728;28;20500;-80
2023/03/26 13:47:58;;;;;;;18.52;4.82;;;8.70;99.90;;;;;;4968536;28;20540;-79